createdAt,value
2023-05-21T00:01:03.167Z,16.19
2023-05-21T00:04:08.884Z,16.01
2023-05-21T00:07:12.638Z,16.03
2023-05-21T00:10:15.130Z,15.84
2023-05-21T00:13:17.613Z,16.23
2023-05-21T00:16:20.026Z,16.20
2023-05-21T00:19:22.634Z,16.07
2023-05-21T00:22:25.160Z,15.87
2023-05-21T00:25:27.573Z,15.88
2023-05-21T00:28:29.991Z,15.82
2023-05-21T00:31:32.385Z,15.75
2023-05-21T00:34:36.349Z,15.64
2023-05-21T00:37:38.893Z,15.67
2023-05-21T00:40:41.448Z,15.57
2023-05-21T00:43:44.696Z,15.69
2023-05-21T00:46:49.007Z,15.51
2023-05-21T00:49:53.394Z,15.51
2023-05-21T00:52:56.637Z,15.57
2023-05-21T00:55:59.168Z,15.42
2023-05-21T00:59:05.538Z,15.43
2023-05-21T01:02:09.609Z,15.56
2023-05-21T01:05:12.250Z,15.51
2023-05-21T01:08:15.222Z,15.60
2023-05-21T01:11:18.820Z,15.75
2023-05-21T01:14:24.257Z,15.62
2023-05-21T01:17:28.449Z,15.85
2023-05-21T01:20:32.316Z,15.92
2023-05-21T01:23:34.810Z,15.84
2023-05-21T01:26:39.755Z,15.88
2023-05-21T01:29:42.543Z,15.96
2023-05-21T01:33:04.162Z,15.82
2023-05-21T01:36:24.174Z,15.97
2023-05-21T01:39:32.537Z,15.85
2023-05-21T01:42:38.358Z,15.81
2023-05-21T01:45:43.764Z,15.75
2023-05-21T01:48:47.342Z,15.78
2023-05-21T01:51:50.065Z,15.81
2023-05-21T01:54:54.392Z,15.87
2023-05-21T01:57:57.134Z,15.72
2023-05-21T02:00:59.742Z,15.82
2023-05-21T02:04:02.203Z,15.75
2023-05-21T02:07:04.835Z,15.70
2023-05-21T02:10:07.927Z,15.65
2023-05-21T02:13:10.627Z,15.53
2023-05-21T02:16:14.773Z,15.60
2023-05-21T02:19:17.764Z,15.42
2023-05-21T02:22:20.275Z,15.67
2023-05-21T02:25:22.826Z,15.56
2023-05-21T02:28:25.477Z,15.35
2023-05-21T02:31:27.902Z,15.41
2023-05-21T02:34:35.080Z,15.33
2023-05-21T02:37:38.010Z,15.09
2023-05-21T02:40:40.531Z,15.04
2023-05-21T02:43:43.763Z,14.98
2023-05-21T02:46:46.594Z,15.02
2023-05-21T02:49:51.541Z,14.92
2023-05-21T02:52:53.997Z,14.79
2023-05-21T02:55:56.670Z,14.95
2023-05-21T02:58:59.047Z,15.01
2023-05-21T03:02:01.649Z,15.03
2023-05-21T03:05:05.305Z,14.98
2023-05-21T03:08:09.200Z,14.77
2023-05-21T03:11:11.620Z,14.75
2023-05-21T03:14:14.564Z,14.56
2023-05-21T03:17:18.095Z,14.58
2023-05-21T03:20:20.506Z,14.65
2023-05-21T03:23:23.436Z,14.60
2023-05-21T03:26:32.512Z,14.63
2023-05-21T03:29:36.213Z,14.68
2023-05-21T03:32:41.446Z,14.66
2023-05-21T03:35:44.462Z,14.50
2023-05-21T03:38:46.952Z,14.50
2023-05-21T03:41:49.374Z,14.56
2023-05-21T03:44:59.077Z,14.61
2023-05-21T03:48:21.487Z,14.78
2023-05-21T03:51:24.912Z,14.81
2023-05-21T03:54:27.718Z,14.58
2023-05-21T03:57:34.538Z,14.93
2023-05-21T04:00:40.675Z,14.84
2023-05-21T04:03:43.477Z,14.84
2023-05-21T04:06:46.445Z,15.10
2023-05-21T04:09:48.850Z,14.98
2023-05-21T04:12:52.482Z,15.32
2023-05-21T04:15:55.869Z,15.43
2023-05-21T04:18:59.065Z,15.65
2023-05-21T04:22:03.203Z,16.05
2023-05-21T04:25:06.278Z,15.99
2023-05-21T04:28:11.482Z,16.40
2023-05-21T04:31:14.101Z,16.58
2023-05-21T04:34:19.988Z,16.80
2023-05-21T04:37:24.736Z,17.03
2023-05-21T04:40:27.149Z,17.27
2023-05-21T04:43:30.106Z,17.23
2023-05-21T04:46:35.033Z,17.87
2023-05-21T04:49:37.800Z,18.01
2023-05-21T04:52:42.467Z,18.28
2023-05-21T04:55:45.073Z,18.48
2023-05-21T04:58:48.008Z,18.48
2023-05-21T05:01:50.600Z,18.66
2023-05-21T05:04:53.047Z,18.75
2023-05-21T05:07:56.402Z,18.98
2023-05-21T05:10:58.774Z,18.99
2023-05-21T05:14:01.610Z,19.25
2023-05-21T05:17:05.781Z,19.40
2023-05-21T05:20:08.874Z,19.54
2023-05-21T05:23:11.434Z,19.85
2023-05-21T05:26:14.344Z,19.91
2023-05-21T05:29:16.829Z,19.88
2023-05-21T05:32:19.556Z,20.12
2023-05-21T05:35:22.058Z,20.20
2023-05-21T05:38:24.536Z,20.37
2023-05-21T05:41:27.217Z,20.72
2023-05-21T05:44:31.247Z,20.89
2023-05-21T05:47:34.045Z,21.21
2023-05-21T05:50:36.609Z,21.22
2023-05-21T05:53:39.116Z,21.39
2023-05-21T05:56:41.496Z,21.68
2023-05-21T05:59:46.935Z,22.49
2023-05-21T06:02:50.898Z,23.27
2023-05-21T06:05:53.472Z,24.33
2023-05-21T06:08:56.100Z,25.18
2023-05-21T06:11:59.436Z,25.81
2023-05-21T06:15:01.935Z,26.60
2023-05-21T06:18:05.169Z,27.06
2023-05-21T06:21:07.693Z,27.58
2023-05-21T06:24:10.983Z,27.93
2023-05-21T06:27:14.034Z,27.88
2023-05-21T06:30:17.048Z,28.30
2023-05-21T06:33:19.804Z,28.71
2023-05-21T06:36:22.306Z,29.08
2023-05-21T06:39:24.939Z,28.88
2023-05-21T06:42:27.410Z,29.36
2023-05-21T06:45:49.901Z,30.02
2023-05-21T06:49:14.065Z,30.28
2023-05-21T06:52:16.806Z,30.54
2023-05-21T06:55:20.020Z,30.37
2023-05-21T06:58:45.621Z,30.05
2023-05-21T07:01:48.135Z,30.00
2023-05-21T07:04:50.631Z,29.80
2023-05-21T07:07:53.026Z,30.83
2023-05-21T07:10:56.500Z,30.38
2023-05-21T07:14:03.929Z,30.94
2023-05-21T07:17:08.723Z,30.57
2023-05-21T07:20:12.681Z,31.12
2023-05-21T07:23:17.317Z,31.43
2023-05-21T07:26:21.623Z,31.46
2023-05-21T07:29:24.160Z,31.37
2023-05-21T07:32:29.261Z,31.40
2023-05-21T07:35:32.116Z,31.92
2023-05-21T07:38:34.730Z,31.98
2023-05-21T07:41:37.347Z,31.67
2023-05-21T07:44:43.083Z,31.62
2023-05-21T07:47:46.920Z,31.69
2023-05-21T07:50:52.546Z,32.17
2023-05-21T07:53:56.314Z,32.05
2023-05-21T07:57:06.021Z,31.49
2023-05-21T08:00:24.840Z,31.11
2023-05-21T08:03:30.950Z,30.96
2023-05-21T08:06:34.113Z,31.94
2023-05-21T08:09:36.839Z,31.35
2023-05-21T08:12:39.512Z,31.67
2023-05-21T08:15:43.112Z,31.96
2023-05-21T08:18:45.983Z,31.94
2023-05-21T08:21:49.267Z,32.25
2023-05-21T08:24:52.984Z,32.58
2023-05-21T08:27:56.099Z,32.83
2023-05-21T08:30:58.680Z,32.98
2023-05-21T08:34:01.311Z,32.77
2023-05-21T08:37:15.222Z,32.31
2023-05-21T08:40:50.434Z,31.96
2023-05-21T08:43:57.675Z,32.42
2023-05-21T08:47:02.903Z,32.41
2023-05-21T08:50:08.675Z,32.78
2023-05-21T08:53:19.833Z,33.49
2023-05-21T08:56:35.249Z,33.89
2023-05-21T08:59:40.145Z,33.52
2023-05-21T09:02:47.230Z,34.08
2023-05-21T09:05:55.187Z,34.62
2023-05-21T09:09:04.826Z,34.47
2023-05-21T09:12:20.047Z,34.56
2023-05-21T09:15:22.731Z,34.25
2023-05-21T09:18:27.592Z,34.39
2023-05-21T09:21:51.083Z,34.59
2023-05-21T09:24:55.701Z,33.82
2023-05-21T09:28:01.706Z,33.79
2023-05-21T09:31:04.364Z,34.20
2023-05-21T09:34:06.818Z,34.48
2023-05-21T09:37:23.715Z,34.39
2023-05-21T09:40:29.585Z,34.53
2023-05-21T09:43:32.303Z,34.48
2023-05-21T09:46:42.661Z,34.47
2023-05-21T09:49:45.668Z,34.42
2023-05-21T09:52:55.726Z,34.39
2023-05-21T09:55:58.376Z,35.14
2023-05-21T09:59:04.476Z,34.54
2023-05-21T10:02:24.026Z,34.20
2023-05-21T10:05:30.689Z,33.56
2023-05-21T10:08:36.762Z,34.57
2023-05-21T10:11:39.954Z,34.41
2023-05-21T10:14:46.923Z,34.50
2023-05-21T10:17:49.881Z,34.33
2023-05-21T10:20:53.262Z,34.47
2023-05-21T10:23:57.457Z,33.90
2023-05-21T10:27:01.877Z,33.19
2023-05-21T10:30:06.258Z,33.70
2023-05-21T10:33:09.322Z,33.95
2023-05-21T10:36:12.298Z,34.22
2023-05-21T10:39:19.866Z,33.87
2023-05-21T10:43:04.047Z,34.88
2023-05-21T10:46:34.546Z,34.86
2023-05-21T10:50:21.131Z,34.81
2023-05-21T10:53:51.122Z,34.78
2023-05-21T10:57:12.079Z,35.49
2023-05-21T11:00:18.302Z,35.28
2023-05-21T11:03:22.146Z,35.63
2023-05-21T11:06:28.144Z,35.35
2023-05-21T11:09:30.665Z,36.02
2023-05-21T11:12:34.968Z,35.26
2023-05-21T11:16:16.759Z,35.96
2023-05-21T11:19:19.469Z,35.46
2023-05-21T11:22:23.971Z,35.52
2023-05-21T11:25:27.541Z,35.29
2023-05-21T11:28:34.209Z,35.23
2023-05-21T11:31:40.319Z,35.48
2023-05-21T11:34:48.713Z,34.92
2023-05-21T11:37:54.108Z,35.52
2023-05-21T11:41:03.245Z,35.58
2023-05-21T11:44:08.825Z,34.82
2023-05-21T11:47:15.796Z,35.14
2023-05-21T11:50:18.636Z,34.30
2023-05-21T11:53:21.089Z,34.56
2023-05-21T11:56:24.500Z,34.49
2023-05-21T11:59:26.867Z,35.21
2023-05-21T12:02:32.823Z,34.52
2023-05-21T12:05:46.492Z,34.49
2023-05-21T12:08:52.526Z,35.01
2023-05-21T12:11:55.101Z,34.42
2023-05-21T12:14:58.413Z,33.59
2023-05-21T12:18:01.337Z,33.80
2023-05-21T12:21:04.930Z,33.80
2023-05-21T12:24:07.311Z,34.57
2023-05-21T12:27:13.299Z,34.01
2023-05-21T12:30:15.919Z,34.19
2023-05-21T12:33:18.884Z,33.19
2023-05-21T12:36:31.930Z,33.70
2023-05-21T12:39:41.685Z,34.09
2023-05-21T12:42:44.610Z,34.40
2023-05-21T12:45:47.193Z,34.11
2023-05-21T12:48:58.388Z,34.34
2023-05-21T12:52:03.110Z,34.32
2023-05-21T12:55:07.134Z,34.04
2023-05-21T12:58:14.160Z,33.81
2023-05-21T13:01:16.569Z,33.10
2023-05-21T13:04:20.264Z,33.22
2023-05-21T13:07:23.161Z,33.80
2023-05-21T13:10:25.553Z,32.94
2023-05-21T13:13:27.966Z,33.55
2023-05-21T13:16:30.569Z,33.56
2023-05-21T13:19:33.070Z,33.48
2023-05-21T13:22:43.674Z,31.62
2023-05-21T13:25:46.124Z,30.95
2023-05-21T13:28:48.494Z,30.60
2023-05-21T13:31:50.946Z,30.26
2023-05-21T13:34:53.475Z,30.42
2023-05-21T13:37:55.869Z,30.13
2023-05-21T13:40:58.305Z,29.84
2023-05-21T13:44:00.957Z,30.41
2023-05-21T13:47:04.205Z,30.55
2023-05-21T13:50:07.394Z,30.59
2023-05-21T13:53:09.867Z,30.68
2023-05-21T13:56:12.585Z,30.01
2023-05-21T13:59:15.007Z,29.65
2023-05-21T14:02:17.550Z,29.55
2023-05-21T14:05:20.066Z,29.87
2023-05-21T14:08:23.677Z,29.88
2023-05-21T14:11:27.544Z,30.20
2023-05-21T14:14:30.048Z,29.87
2023-05-21T14:17:32.501Z,29.73
2023-05-21T14:20:34.930Z,29.35
2023-05-21T14:23:37.330Z,29.28
2023-05-21T14:26:42.635Z,28.75
2023-05-21T14:29:45.051Z,27.75
2023-05-21T14:32:47.449Z,27.20
2023-05-21T14:35:49.869Z,26.82
2023-05-21T14:38:52.274Z,27.21
2023-05-21T14:41:54.804Z,26.90
2023-05-21T14:44:58.885Z,26.53
2023-05-21T14:48:08.308Z,26.74
2023-05-21T14:51:10.838Z,26.92
2023-05-21T14:54:13.778Z,27.04
2023-05-21T14:57:16.185Z,27.26
2023-05-21T15:00:18.736Z,27.36
2023-05-21T15:03:21.275Z,27.57
2023-05-21T15:06:24.822Z,27.60
2023-05-21T15:09:27.246Z,27.30
2023-05-21T15:12:29.658Z,27.23
2023-05-21T15:15:32.079Z,27.09
2023-05-21T15:18:34.494Z,26.85
2023-05-21T15:21:37.053Z,26.59
2023-05-21T15:24:39.419Z,26.52
2023-05-21T15:27:41.889Z,26.63
2023-05-21T15:30:44.282Z,26.39
2023-05-21T15:33:46.729Z,26.49
2023-05-21T15:36:49.104Z,26.47
2023-05-21T15:39:53.330Z,26.25
2023-05-21T15:42:55.874Z,26.24
2023-05-21T15:45:58.484Z,26.17
2023-05-21T15:49:00.866Z,26.20
2023-05-21T15:52:03.345Z,26.12
2023-05-21T15:55:06.046Z,26.04
2023-05-21T15:58:08.549Z,25.99
2023-05-21T16:01:11.009Z,26.11
2023-05-21T16:04:13.622Z,25.97
2023-05-21T16:07:16.035Z,25.80
2023-05-21T16:10:18.595Z,25.79
2023-05-21T16:13:21.199Z,25.62
2023-05-21T16:16:24.873Z,25.78
2023-05-21T16:19:27.443Z,25.67
2023-05-21T16:22:32.487Z,25.52
2023-05-21T16:25:38.232Z,25.50
2023-05-21T16:28:43.837Z,25.40
2023-05-21T16:31:47.515Z,25.28
2023-05-21T16:34:49.995Z,25.14
2023-05-21T16:37:52.486Z,25.11
2023-05-21T16:40:54.934Z,24.88
2023-05-21T16:43:57.299Z,24.99
2023-05-21T16:47:00.429Z,24.91
2023-05-21T16:50:05.925Z,24.64
2023-05-21T16:53:09.844Z,24.43
2023-05-21T16:56:12.257Z,24.40
2023-05-21T16:59:14.669Z,24.06
2023-05-21T17:02:17.170Z,24.07
2023-05-21T17:05:20.921Z,23.99
2023-05-21T17:08:23.300Z,23.90
2023-05-21T17:11:25.786Z,23.78
2023-05-21T17:14:34.326Z,23.59
2023-05-21T17:17:37.837Z,23.37
2023-05-21T17:20:40.448Z,23.38
2023-05-21T17:23:42.981Z,23.32
2023-05-21T17:26:45.399Z,23.32
2023-05-21T17:29:47.776Z,23.31
2023-05-21T17:32:50.148Z,23.07
2023-05-21T17:35:52.562Z,23.13
2023-05-21T17:38:55.113Z,22.98
2023-05-21T17:41:57.791Z,22.85
2023-05-21T17:45:01.437Z,22.65
2023-05-21T17:48:04.217Z,22.62
2023-05-21T17:51:06.754Z,22.66
2023-05-21T17:54:09.478Z,22.63
2023-05-21T17:57:12.148Z,22.52
2023-05-21T18:00:14.892Z,22.37
2023-05-21T18:03:17.219Z,22.24
2023-05-21T18:06:19.715Z,22.07
2023-05-21T18:09:22.252Z,21.93
2023-05-21T18:12:24.788Z,21.79
2023-05-21T18:15:27.260Z,21.75
2023-05-21T18:18:29.692Z,21.52
2023-05-21T18:21:34.647Z,21.47
2023-05-21T18:24:38.171Z,21.43
2023-05-21T18:27:40.782Z,21.39
2023-05-21T18:30:43.182Z,21.48
2023-05-21T18:33:45.630Z,21.20
2023-05-21T18:36:48.311Z,21.50
2023-05-21T18:39:51.006Z,21.26
2023-05-21T18:42:53.823Z,21.31
2023-05-21T18:45:56.278Z,21.25
2023-05-21T18:49:01.561Z,21.19
2023-05-21T18:52:06.169Z,21.35
2023-05-21T18:55:09.255Z,21.37
2023-05-21T18:58:11.638Z,21.29
2023-05-21T19:01:14.110Z,21.22
2023-05-21T19:04:17.652Z,21.09
2023-05-21T19:07:20.063Z,20.83
2023-05-21T19:10:22.558Z,20.77
2023-05-21T19:13:25.131Z,20.76
2023-05-21T19:16:27.907Z,20.61
2023-05-21T19:19:30.484Z,20.68
2023-05-21T19:22:33.093Z,20.62
2023-05-21T19:25:35.723Z,20.64
2023-05-21T19:28:38.251Z,20.61
2023-05-21T19:31:40.925Z,20.53
2023-05-21T19:34:43.443Z,20.38
2023-05-21T19:37:45.833Z,20.37
2023-05-21T19:40:49.098Z,20.43
2023-05-21T19:43:51.544Z,20.41
2023-05-21T19:46:54.633Z,20.48
2023-05-21T19:49:57.050Z,20.44
2023-05-21T19:52:59.491Z,20.55
2023-05-21T19:56:01.945Z,20.47
2023-05-21T19:59:04.415Z,20.27
2023-05-21T20:02:07.201Z,20.17
2023-05-21T20:05:09.987Z,20.20
2023-05-21T20:08:12.760Z,19.98
2023-05-21T20:11:15.590Z,19.80
2023-05-21T20:14:18.021Z,19.74
2023-05-21T20:17:20.806Z,19.62
2023-05-21T20:20:23.223Z,19.63
2023-05-21T20:23:25.707Z,19.57
2023-05-21T20:26:28.136Z,19.40
2023-05-21T20:29:30.578Z,19.32
2023-05-21T20:32:32.980Z,19.26
2023-05-21T20:35:35.506Z,19.52
2023-05-21T20:38:38.327Z,19.60
2023-05-21T20:41:44.653Z,19.58
2023-05-21T20:44:47.247Z,19.28
2023-05-21T20:47:49.963Z,19.54
2023-05-21T20:50:52.902Z,19.52
2023-05-21T20:53:55.614Z,19.41
2023-05-21T20:56:59.594Z,19.15
2023-05-21T21:00:02.035Z,19.00
2023-05-21T21:03:05.194Z,18.82
2023-05-21T21:06:09.798Z,18.93
2023-05-21T21:09:12.611Z,18.98
2023-05-21T21:12:25.954Z,18.76
2023-05-21T21:15:29.146Z,18.81
2023-05-21T21:18:31.554Z,18.63
2023-05-21T21:21:33.983Z,18.66
2023-05-21T21:24:36.358Z,18.54
2023-05-21T21:27:38.787Z,18.49
2023-05-21T21:30:41.372Z,18.61
2023-05-21T21:33:43.938Z,18.47
2023-05-21T21:36:46.689Z,18.50
2023-05-21T21:39:49.108Z,18.39
2023-05-21T21:42:51.485Z,18.41
2023-05-21T21:45:53.968Z,18.18
2023-05-21T21:48:56.486Z,18.17
2023-05-21T21:51:58.964Z,18.19
2023-05-21T21:55:01.310Z,18.13
2023-05-21T21:58:03.803Z,18.00
2023-05-21T22:01:06.400Z,17.87
2023-05-21T22:04:09.025Z,17.61
2023-05-21T22:07:18.087Z,17.55
2023-05-21T22:10:21.341Z,17.42
2023-05-21T22:13:24.591Z,17.21
2023-05-21T22:16:28.345Z,17.35
2023-05-21T22:19:32.815Z,17.18
2023-05-21T22:22:35.422Z,17.03
2023-05-21T22:25:37.920Z,17.04
2023-05-21T22:28:40.436Z,16.64
2023-05-21T22:31:42.857Z,16.59
2023-05-21T22:34:45.288Z,16.49
2023-05-21T22:37:47.774Z,16.51
2023-05-21T22:40:50.382Z,16.64
2023-05-21T22:43:52.798Z,16.65
2023-05-21T22:46:56.600Z,16.79
2023-05-21T22:50:01.455Z,16.57
2023-05-21T22:53:04.047Z,16.54
2023-05-21T22:56:06.863Z,16.73
2023-05-21T22:59:09.279Z,16.52
2023-05-21T23:02:12.687Z,16.51
2023-05-21T23:05:15.486Z,16.64
2023-05-21T23:08:17.908Z,16.51
2023-05-21T23:11:20.946Z,16.55
2023-05-21T23:14:23.355Z,16.38
2023-05-21T23:17:25.855Z,16.56
2023-05-21T23:20:28.237Z,16.50
2023-05-21T23:23:30.659Z,16.20
2023-05-21T23:26:33.449Z,16.34
2023-05-21T23:29:36.103Z,16.25
2023-05-21T23:32:38.833Z,16.39
2023-05-21T23:35:41.292Z,16.37
2023-05-21T23:38:43.963Z,16.42
2023-05-21T23:41:46.372Z,15.92
2023-05-21T23:44:48.735Z,15.88
2023-05-21T23:47:52.042Z,15.57
2023-05-21T23:50:54.742Z,15.35
2023-05-21T23:53:57.161Z,15.14
2023-05-21T23:56:59.624Z,15.03
